Time;durP1;ratioP1;P1;durP2;ratioP2;P2;SDS_P1;SDS_P2;PMS_P1;PMS_P2;Temp;Humidity;BMP_temperature;BMP_pressure;BME280_temperature;BME280_humidity;BME280_pressure;Samples;Min_cycle;Max_cycle;Signal;HPM_P1;HPM_P2
2020/12/05 00:00:21;;;;;;;4.55;2.88;;;1.00;99.90;;;;;;10440745;28;20393;-94
2020/12/05 00:05:24;;;;;;;8.98;3.30;;;1.20;99.90;;;;;;10441821;28;20084;-94
2020/12/05 00:10:33;;;;;;;4.70;3.00;;;1.00;99.90;;;;;;10426225;28;20131;-94
2020/12/05 05:50:41;;;;;;;9.07;4.53;;;0.10;99.90;;;;;;10163297;29;20048;-94
2020/12/05 05:55:46;;;;;;;4.57;4.03;;;0.20;99.90;;;;;;10092368;29;20057;-93
2020/12/05 06:00:53;;;;;;;7.88;5.85;;;0.20;99.90;;;;;;10109090;29;20604;-93
2020/12/05 06:05:57;;;;;;;6.32;4.43;;;0.20;99.90;;;;;;10094499;29;20140;-93
2020/12/05 06:11:02;;;;;;;8.00;4.68;;;0.00;99.90;;;;;;10110027;29;20061;-92
2020/12/05 06:16:04;;;;;;;5.15;4.05;;;0.00;99.90;;;;;;10063716;23;20053;-92
2020/12/05 06:21:06;;;;;;;7.20;5.28;;;-0.10;99.90;;;;;;10047593;29;20092;-91
2020/12/05 06:26:09;;;;;;;7.70;5.45;;;-0.20;99.90;;;;;;10000749;29;20433;-92
2020/12/05 06:31:10;;;;;;;6.00;5.43;;;-0.30;99.90;;;;;;10022581;29;20115;-91
2020/12/05 06:36:27;;;;;;;11.65;8.75;;;-0.30;99.90;;;;;;9992199;29;20062;-91
2020/12/05 06:41:39;;;;;;;29.90;16.75;;;-0.30;99.90;;;;;;10038478;29;20115;-91
2020/12/05 06:46:54;;;;;;;20.05;12.90;;;-0.20;99.90;;;;;;10008458;29;20494;-92
2020/12/05 06:51:55;;;;;;;24.83;14.55;;;-0.20;99.90;;;;;;10023337;29;20418;-91
2020/12/05 06:57:12;;;;;;;15.07;10.82;;;-0.20;99.90;;;;;;10007694;29;20482;-91
2020/12/05 07:02:35;;;;;;;13.73;9.88;;;-0.20;99.90;;;;;;10022896;29;20064;-91
2020/12/05 07:07:37;;;;;;;11.38;7.90;;;-0.30;99.90;;;;;;10008494;29;20141;-91
2020/12/05 07:12:42;;;;;;;14.25;9.43;;;-0.30;99.90;;;;;;10010969;29;20061;-91
2020/12/05 07:17:44;;;;;;;14.40;8.90;;;-0.30;99.90;;;;;;10045287;29;20068;-91
2020/12/05 07:22:49;;;;;;;12.00;8.57;;;-0.30;99.90;;;;;;10048714;29;20136;-91
2020/12/05 07:27:53;;;;;;;12.10;9.70;;;-0.10;99.90;;;;;;10039251;29;20065;-92
2020/12/05 07:32:54;;;;;;;15.60;9.57;;;0.00;99.90;;;;;;10014606;29;20160;-91
2020/12/05 07:37:56;;;;;;;;;;;0.10;99.90;;;;;;10014771;29;20057;-92
2020/12/05 07:42:57;;;;;;;12.20;8.25;;;0.10;99.90;;;;;;10030166;29;19924;-92
2020/12/05 07:48:10;;;;;;;18.70;12.30;;;0.10;99.90;;;;;;10014500;29;20057;-91
2020/12/05 07:53:27;;;;;;;13.85;9.85;;;0.10;99.90;;;;;;10030460;29;20076;-91
2020/12/05 07:58:28;;;;;;;20.23;13.55;;;0.20;99.90;;;;;;10031145;29;20493;-91
2020/12/05 08:03:55;;;;;;;8.82;7.70;;;0.20;99.90;;;;;;10014305;29;20490;-91
2020/12/05 08:09:04;;;;;;;23.30;13.18;;;0.50;99.90;;;;;;10042782;29;20069;-92
2020/12/05 08:14:06;;;;;;;14.43;9.80;;;0.50;99.90;;;;;;10042484;29;20531;-92
2020/12/05 08:19:08;;;;;;;11.18;9.65;;;1.20;99.90;;;;;;10014862;29;20148;-91
2020/12/05 08:24:10;;;;;;;12.32;9.25;;;1.20;99.90;;;;;;10028998;29;20061;-91
2020/12/05 08:29:13;;;;;;;14.65;9.73;;;1.40;99.90;;;;;;10029024;29;20072;-92
2020/12/05 08:34:27;;;;;;;11.75;9.02;;;1.60;99.90;;;;;;10028428;29;20053;-92
2020/12/05 08:39:43;;;;;;;11.63;9.50;;;2.00;99.90;;;;;;10046011;29;20394;-93
2020/12/05 08:44:45;;;;;;;12.05;9.38;;;1.90;99.90;;;;;;10031076;29;20421;-93
2020/12/05 08:49:50;;;;;;;11.32;8.70;;;2.00;99.90;;;;;;10034059;29;20136;-94
2020/12/05 08:54:53;;;;;;;13.00;8.55;;;2.00;99.90;;;;;;10035694;29;20129;-94
2020/12/05 09:00:01;;;;;;;12.90;9.02;;;1.90;99.90;;;;;;10050471;29;20065;-93
2020/12/05 09:05:05;;;;;;;11.98;8.20;;;2.10;99.90;;;;;;10035705;29;20082;-93
2020/12/05 09:10:17;;;;;;;11.07;8.45;;;2.60;99.90;;;;;;10050867;29;20137;-93
2020/12/05 09:15:24;;;;;;;11.02;8.40;;;2.50;99.90;;;;;;10034070;29;20053;-93
2020/12/05 09:20:27;;;;;;;11.18;7.97;;;2.10;99.90;;;;;;10021782;29;20083;-94
2020/12/05 09:25:40;;;;;;;14.27;10.23;;;2.10;99.90;;;;;;10035291;29;20065;-93
2020/12/05 09:30:42;;;;;;;10.43;8.35;;;2.20;99.90;;;;;;10019157;29;20189;-94
2020/12/05 09:35:45;;;;;;;12.55;9.30;;;2.80;99.90;;;;;;10034461;29;20053;-94
2020/12/05 09:40:53;;;;;;;10.88;8.32;;;2.70;99.90;;;;;;10035641;29;20061;-92
2020/12/05 09:45:57;;;;;;;13.23;8.35;;;3.00;99.90;;;;;;10050166;29;20072;-94
2020/12/05 09:51:01;;;;;;;10.52;8.88;;;3.10;99.90;;;;;;10049398;29;20053;-93
2020/12/05 09:56:09;;;;;;;10.18;8.52;;;3.10;99.90;;;;;;10034831;29;20176;-94
2020/12/05 10:01:13;;;;;;;8.77;7.13;;;3.00;99.90;;;;;;10049375;29;20413;-96
2020/12/05 10:06:19;;;;;;;9.95;7.85;;;3.40;99.90;;;;;;10035442;29;20125;-95
2020/12/05 10:11:25;;;;;;;8.65;6.43;;;3.50;99.90;;;;;;10019662;29;20088;-96
2020/12/05 10:16:28;;;;;;;10.13;7.60;;;3.40;99.90;;;;;;10023860;29;20087;-96
2020/12/05 10:21:37;;;;;;;8.82;6.45;;;3.40;99.90;;;;;;10025123;29;20137;-96
2020/12/05 10:26:42;;;;;;;9.88;6.75;;;3.60;99.90;;;;;;10025121;29;20080;-95
2020/12/05 10:31:54;;;;;;;10.63;7.43;;;3.70;99.90;;;;;;9996070;29;20057;-96
2020/12/05 10:36:55;;;;;;;8.75;6.93;;;4.00;99.90;;;;;;10023348;29;20082;-96
2020/12/05 10:42:09;;;;;;;7.35;5.32;;;3.90;99.90;;;;;;10009142;29;20140;-94
2020/12/05 10:47:10;;;;;;;6.82;5.68;;;4.20;99.90;;;;;;10023432;29;20533;-94
2020/12/05 10:52:12;;;;;;;7.30;5.35;;;3.40;99.90;;;;;;10008504;29;20114;-96
2020/12/05 10:57:13;;;;;;;5.00;4.50;;;3.50;99.90;;;;;;9994290;29;20073;-95
2020/12/05 11:02:15;;;;;;;5.65;3.45;;;3.70;99.90;;;;;;10023229;29;20165;-96
2020/12/05 11:07:16;;;;;;;;;;;4.10;99.90;;;;;;10008805;29;20065;-95
2020/12/05 11:12:18;;;;;;;4.97;3.53;;;3.80;99.90;;;;;;10011524;29;20023;-95
2020/12/05 11:17:20;;;;;;;;;;;3.90;99.90;;;;;;10084597;29;20520;-96
2020/12/05 11:22:23;;;;;;;6.30;3.50;;;4.00;99.90;;;;;;10086080;29;19959;-96
2020/12/05 11:27:25;;;;;;;4.43;4.03;;;4.00;99.90;;;;;;10068198;29;20553;-96
2020/12/05 11:32:27;;;;;;;3.83;3.42;;;4.00;99.90;;;;;;10099306;29;20458;-96
2020/12/05 11:37:29;;;;;;;4.95;4.25;;;4.20;99.90;;;;;;10098569;29;20057;-95
2020/12/05 11:42:33;;;;;;;5.85;4.82;;;3.90;99.90;;;;;;10083240;29;20096;-95
2020/12/05 11:47:35;;;;;;;4.50;3.95;;;3.90;99.90;;;;;;10068362;29;20076;-95
2020/12/05 11:52:36;;;;;;;5.57;3.97;;;3.90;99.90;;;;;;10082748;29;20420;-96
2020/12/05 11:57:38;;;;;;;7.57;3.95;;;4.00;99.90;;;;;;10067758;29;20577;-96
2020/12/05 12:02:40;;;;;;;6.57;3.78;;;4.30;99.90;;;;;;10069169;29;20505;-96
2020/12/05 12:07:41;;;;;;;4.25;3.30;;;4.20;99.90;;;;;;10098879;29;20080;-96
2020/12/05 12:52:35;;;;;;;6.50;3.88;;;4.40;99.90;;;;;;10119933;29;20148;-95
2020/12/05 12:57:37;;;;;;;4.60;3.60;;;4.40;99.90;;;;;;10090471;29;20057;-95
2020/12/05 13:02:39;;;;;;;4.93;4.43;;;4.20;99.90;;;;;;10088638;29;20116;-96
2020/12/05 13:07:40;;;;;;;6.57;4.05;;;4.30;99.90;;;;;;10088584;29;20117;-95
2020/12/05 13:12:43;;;;;;;5.28;4.22;;;4.30;99.90;;;;;;10073558;29;20057;-96
2020/12/05 13:17:45;;;;;;;5.47;4.75;;;4.50;99.90;;;;;;10088525;29;20060;-96
2020/12/05 13:22:46;;;;;;;8.35;4.40;;;4.50;99.90;;;;;;10089185;29;20077;-96
2020/12/05 13:27:51;;;;;;;4.65;4.25;;;4.60;99.90;;;;;;10079978;29;20082;-96
2020/12/05 13:32:55;;;;;;;5.88;4.13;;;4.70;99.90;;;;;;10088947;29;20520;-96
2020/12/05 13:38:00;;;;;;;5.03;4.05;;;4.70;99.90;;;;;;10111279;29;20053;-96
2020/12/05 13:43:09;;;;;;;4.43;4.03;;;4.90;99.90;;;;;;10107472;29;20091;-96
2020/12/05 13:48:11;;;;;;;3.90;3.60;;;4.90;99.90;;;;;;10090411;29;20069;-96
2020/12/05 13:53:13;;;;;;;4.00;3.63;;;4.90;99.90;;;;;;10097792;29;20424;-96
2020/12/05 13:58:14;;;;;;;;;;;5.10;99.90;;;;;;10117464;29;20056;-96
2020/12/05 14:03:16;;;;;;;4.80;3.78;;;5.00;99.90;;;;;;10120899;29;20010;-96
2020/12/05 14:08:18;;;;;;;5.40;4.03;;;5.00;99.90;;;;;;10110980;29;20132;-94
2020/12/05 14:13:20;;;;;;;6.00;3.42;;;4.90;99.90;;;;;;10101156;29;20061;-96
2020/12/05 14:18:22;;;;;;;4.90;3.72;;;5.00;99.90;;;;;;10111184;29;20057;-96
2020/12/05 14:23:24;;;;;;;9.57;4.82;;;4.90;99.90;;;;;;10111630;29;20056;-96
2020/12/05 14:28:27;;;;;;;4.20;3.78;;;4.90;99.90;;;;;;10116650;29;20480;-96
2020/12/05 14:33:29;;;;;;;4.00;3.60;;;4.90;99.90;;;;;;10110754;29;20453;-96
2020/12/05 14:38:31;;;;;;;17.58;6.65;;;4.80;99.90;;;;;;10109484;29;20061;-96
2020/12/05 14:43:32;;;;;;;6.57;4.70;;;4.70;99.90;;;;;;10110101;29;20135;-96
2020/12/05 14:48:35;;;;;;;5.50;3.75;;;4.60;99.90;;;;;;10094465;29;20091;-96
2020/12/05 14:53:37;;;;;;;6.97;3.83;;;4.50;99.90;;;;;;10110683;29;20131;-96
2020/12/05 14:58:38;;;;;;;4.53;3.38;;;4.00;99.90;;;;;;10114789;29;20103;-96
2020/12/05 15:03:40;;;;;;;4.55;3.30;;;3.60;99.90;;;;;;10097725;29;20060;-96
2020/12/05 15:08:42;;;;;;;7.43;3.70;;;3.70;99.90;;;;;;10112268;29;20094;-96
2020/12/05 15:13:44;;;;;;;12.07;6.22;;;3.70;99.90;;;;;;10113018;29;20108;-96
2020/12/05 15:18:46;;;;;;;5.75;3.95;;;3.80;99.90;;;;;;10097004;29;20112;-96
2020/12/05 15:23:48;;;;;;;;;;;3.80;99.90;;;;;;10112426;29;20087;-96
2020/12/05 15:28:50;;;;;;;6.13;3.83;;;3.70;99.90;;;;;;10112058;29;20236;-96
2020/12/05 15:33:52;;;;;;;5.93;4.10;;;3.50;99.90;;;;;;10111309;29;20109;-96
2020/12/05 15:38:54;;;;;;;4.20;3.58;;;3.30;99.90;;;;;;10113008;29;20089;-96
2020/12/05 15:43:56;;;;;;;3.88;3.47;;;3.10;99.90;;;;;;10115042;29;20065;-96
2020/12/05 15:48:58;;;;;;;;;;;2.80;99.90;;;;;;10118801;29;20061;-96
2020/12/05 15:54:01;;;;;;;4.53;2.70;;;2.50;99.90;;;;;;10104632;29;19928;-96
2020/12/05 15:59:02;;;;;;;5.43;2.95;;;2.50;99.90;;;;;;10132588;29;20063;-96
2020/12/05 16:04:05;;;;;;;5.55;3.20;;;2.40;99.90;;;;;;10126532;29;20136;-96
2020/12/05 16:09:07;;;;;;;5.35;3.10;;;2.30;99.90;;;;;;10120733;29;20063;-96
2020/12/05 16:14:09;;;;;;;4.22;2.88;;;2.20;99.90;;;;;;10101181;29;20081;-96
2020/12/05 16:19:12;;;;;;;4.63;2.15;;;2.00;99.90;;;;;;10114972;29;20060;-96
2020/12/05 16:24:14;;;;;;;5.00;2.72;;;1.80;99.90;;;;;;10088684;29;20057;-96
2020/12/05 16:29:16;;;;;;;4.85;2.70;;;1.70;99.90;;;;;;10118730;29;20060;-96
2020/12/05 16:34:17;;;;;;;;;;;1.40;99.90;;;;;;10114198;29;20080;-96
2020/12/05 16:39:19;;;;;;;2.53;2.33;;;1.40;99.90;;;;;;10113757;29;20010;-96
2020/12/05 16:44:21;;;;;;;;;;;1.30;99.90;;;;;;10114574;29;20056;-96
2020/12/05 16:49:23;;;;;;;2.90;2.53;;;1.30;99.90;;;;;;10112043;29;20002;-95
2020/12/05 16:54:24;;;;;;;6.93;4.65;;;1.10;99.90;;;;;;10111557;29;20136;-96
2020/12/05 16:59:26;;;;;;;4.03;3.03;;;1.00;99.90;;;;;;10113998;29;20059;-96
2020/12/05 17:04:28;;;;;;;4.53;2.65;;;1.00;99.90;;;;;;10113889;29;20136;-96
2020/12/05 17:09:29;;;;;;;3.38;2.25;;;1.00;99.90;;;;;;10112158;29;20084;-96
2020/12/05 17:14:37;;;;;;;4.40;3.58;;;0.90;99.90;;;;;;10110658;29;20136;-96
2020/12/05 17:19:41;;;;;;;4.43;2.78;;;0.90;99.90;;;;;;10111970;29;20056;-96
2020/12/05 17:24:45;;;;;;;3.38;2.63;;;0.80;99.90;;;;;;10111131;29;20076;-96
2020/12/05 17:29:50;;;;;;;7.35;3.28;;;0.70;99.90;;;;;;10110835;29;20056;-95
2020/12/05 17:35:03;;;;;;;5.72;3.05;;;0.80;99.90;;;;;;10096741;29;20056;-95
2020/12/05 17:40:07;;;;;;;6.43;3.30;;;0.70;99.90;;;;;;10112819;29;20139;-95
2020/12/05 17:45:14;;;;;;;4.63;3.28;;;0.70;99.90;;;;;;10111145;29;20076;-96
2020/12/05 17:50:26;;;;;;;3.90;3.20;;;0.70;99.90;;;;;;10096450;29;20087;-95
2020/12/05 17:55:28;;;;;;;;;;;0.60;99.90;;;;;;10110772;29;20508;-96
2020/12/05 18:00:29;;;;;;;4.82;2.53;;;0.50;99.90;;;;;;10110565;29;20339;-96
2020/12/05 18:05:31;;;;;;;6.72;3.17;;;0.40;99.90;;;;;;10109216;29;20135;-96
2020/12/05 18:10:35;;;;;;;5.40;3.55;;;0.50;99.90;;;;;;10109515;29;20461;-96
2020/12/05 18:15:43;;;;;;;5.65;2.75;;;0.50;99.90;;;;;;10110438;29;20062;-92
2020/12/05 18:20:47;;;;;;;7.03;3.97;;;0.40;99.90;;;;;;10107750;29;20112;-96
2020/12/05 18:25:51;;;;;;;4.07;3.15;;;0.40;99.90;;;;;;10095418;29;20148;-95
2020/12/05 18:31:01;;;;;;;6.32;3.50;;;0.30;99.90;;;;;;10109608;29;20083;-96
2020/12/05 18:36:04;;;;;;;7.28;3.45;;;0.30;99.90;;;;;;10108858;29;20060;-96
2020/12/05 18:41:11;;;;;;;4.10;3.15;;;0.30;99.90;;;;;;10108785;29;20061;-96
2020/12/05 18:46:28;;;;;;;4.45;3.50;;;0.30;99.90;;;;;;10107702;29;20064;-96
2020/12/05 18:51:35;;;;;;;5.20;2.92;;;0.00;99.90;;;;;;10108597;29;20064;-96
2020/12/05 18:56:47;;;;;;;;;;;0.20;99.90;;;;;;10109956;29;20056;-96
2020/12/05 19:01:52;;;;;;;3.58;2.97;;;0.10;99.90;;;;;;10107840;29;20435;-95
2020/12/05 19:06:57;;;;;;;4.03;2.42;;;0.00;99.90;;;;;;10107697;29;20083;-95
2020/12/05 19:12:12;;;;;;;3.65;2.75;;;0.00;99.90;;;;;;10087219;29;20466;-93
2020/12/05 19:17:21;;;;;;;4.00;2.58;;;-0.10;99.90;;;;;;10085386;29;20132;-95
2020/12/05 19:22:23;;;;;;;2.50;2.30;;;-0.20;99.90;;;;;;10084346;29;20087;-95
2020/12/05 19:27:24;;;;;;;2.53;2.33;;;-0.10;99.90;;;;;;10083951;29;20092;-94
2020/12/05 19:32:26;;;;;;;4.88;3.58;;;-0.30;99.90;;;;;;10052835;29;20072;-94
2020/12/05 19:37:27;;;;;;;5.13;2.83;;;-0.30;99.90;;;;;;10082995;29;20082;-94
2020/12/05 19:42:31;;;;;;;2.10;1.90;;;-0.30;99.90;;;;;;10067929;29;20075;-94
2020/12/05 19:47:33;;;;;;;4.65;2.10;;;-0.30;99.90;;;;;;10053390;29;20144;-94
2020/12/05 19:52:36;;;;;;;6.47;3.03;;;-0.30;99.90;;;;;;10082181;29;20117;-94
2020/12/05 19:57:38;;;;;;;3.97;2.90;;;-0.50;99.90;;;;;;10083341;29;20057;-94
2020/12/05 20:02:40;;;;;;;5.10;2.72;;;-0.50;99.90;;;;;;10083470;29;20481;-94
2020/12/05 20:07:42;;;;;;;7.15;2.97;;;-0.50;99.90;;;;;;10067231;29;20071;-93
2020/12/05 20:12:43;;;;;;;7.13;3.78;;;-0.40;99.90;;;;;;10082895;29;20085;-94
2020/12/05 20:17:47;;;;;;;5.28;3.50;;;-0.50;99.90;;;;;;10087981;29;20045;-93
2020/12/05 20:22:53;;;;;;;4.32;3.53;;;-0.60;99.90;;;;;;10119895;29;20084;-94
2020/12/05 20:27:58;;;;;;;12.43;7.47;;;-0.50;99.90;;;;;;10105187;29;20059;-93
2020/12/05 20:33:01;;;;;;;6.22;5.18;;;-0.40;99.90;;;;;;10120249;29;20123;-93
2020/12/05 20:38:08;;;;;;;6.47;5.47;;;-0.40;99.90;;;;;;10105936;29;20063;-93
2020/12/05 22:13:33;;;;;;;;;;;-0.70;99.90;;;;;;10114516;29;20045;-92
2020/12/05 22:18:45;;;;;;;8.73;6.85;;;-0.60;99.90;;;;;;10086002;29;19923;-95
2020/12/05 22:23:47;;;;;;;10.82;8.45;;;-0.50;99.90;;;;;;10086415;29;20054;-95
2020/12/05 22:28:52;;;;;;;10.85;8.35;;;-0.60;99.90;;;;;;10069787;29;20109;-95
2020/12/05 22:33:56;;;;;;;12.00;8.70;;;-0.60;99.90;;;;;;10055677;29;20416;-96
2020/12/05 22:39:00;;;;;;;11.98;8.20;;;-0.60;99.90;;;;;;10070709;29;20114;-96
2020/12/05 22:44:03;;;;;;;13.27;9.15;;;-0.50;99.90;;;;;;10070094;29;20113;-94
2020/12/05 22:49:08;;;;;;;15.00;10.23;;;-0.50;99.90;;;;;;10101767;29;20060;-95
2020/12/05 22:54:09;;;;;;;14.80;9.50;;;-0.30;99.90;;;;;;10069349;29;20402;-94
2020/12/05 22:59:13;;;;;;;16.90;9.35;;;0.00;99.90;;;;;;10057222;29;20091;-94
2020/12/05 23:04:22;;;;;;;12.98;10.07;;;0.00;99.90;;;;;;10086135;29;20139;-94
2020/12/05 23:09:35;;;;;;;13.88;8.70;;;-0.20;99.90;;;;;;10087198;29;20111;-94
2020/12/05 23:14:43;;;;;;;14.48;9.80;;;-0.30;99.90;;;;;;10068816;29;20541;-95
2020/12/05 23:19:50;;;;;;;10.40;6.83;;;-0.40;99.90;;;;;;10070453;29;20080;-95
2020/12/05 23:24:54;;;;;;;12.32;9.70;;;-0.50;99.90;;;;;;10053850;29;20619;-94
2020/12/05 23:30:11;;;;;;;15.45;8.70;;;-0.50;99.90;;;;;;10068238;29;20497;-94
2020/12/05 23:35:25;;;;;;;16.58;10.88;;;-0.50;99.90;;;;;;10086627;29;20053;-93
2020/12/05 23:40:34;;;;;;;18.13;9.73;;;-0.50;99.90;;;;;;10084215;29;20056;-93
2020/12/05 23:45:44;;;;;;;12.90;9.60;;;-0.50;99.90;;;;;;10083949;29;20056;-93
2020/12/05 23:50:49;;;;;;;16.55;9.13;;;-0.50;99.90;;;;;;10084870;29;20091;-93
2020/12/05 23:55:51;;;;;;;16.73;12.95;;;-0.40;99.90;;;;;;10067459;29;20077;-93
